createdAt,value
2023-03-11T00:04:10.587Z,94934.53
2023-03-11T00:14:13.073Z,94941.13
2023-03-11T00:24:16.830Z,94950.28
2023-03-11T00:34:19.417Z,94956.38
2023-03-11T00:44:23.327Z,94962.31
2023-03-11T00:54:25.819Z,94974.22
2023-03-11T01:04:29.681Z,94974.72
2023-03-11T01:14:32.126Z,94980.66
2023-03-11T01:24:35.916Z,94968.50
2023-03-11T01:34:38.416Z,94983.59
2023-03-11T01:44:42.199Z,94993.84
2023-03-11T01:54:44.756Z,94989.53
2023-03-11T02:04:49.108Z,94960.75
2023-03-11T02:14:53.915Z,94972.28
2023-03-11T02:25:00.908Z,94982.56
2023-03-11T02:35:05.127Z,94976.09
2023-03-11T02:45:09.498Z,94998.94
2023-03-11T02:55:14.509Z,94976.75
2023-03-11T03:05:17.102Z,95014.69
2023-03-11T03:15:21.512Z,95012.69
2023-03-11T03:25:24.056Z,94998.94
2023-03-11T03:35:27.923Z,95018.97
2023-03-11T03:45:30.403Z,95041.19
2023-03-11T03:55:34.253Z,95041.47
2023-03-11T04:05:36.717Z,95052.50
2023-03-11T04:15:40.594Z,95062.03
2023-03-11T04:25:43.127Z,95060.66
2023-03-11T04:35:47.015Z,95069.78
2023-03-11T04:45:51.126Z,95065.75
2023-03-11T04:55:54.940Z,95072.09
2023-03-11T05:05:57.534Z,95086.88
2023-03-11T05:16:01.383Z,95085.81
2023-03-11T05:26:03.895Z,95103.06
2023-03-11T05:36:09.274Z,95116.00
2023-03-11T05:46:11.911Z,95100.81
2023-03-11T05:56:15.856Z,95092.72
2023-03-11T06:06:18.539Z,95122.09
2023-03-11T06:16:22.553Z,95126.13
2023-03-11T06:26:25.390Z,95130.59
2023-03-11T06:36:29.162Z,95151.44
2023-03-11T06:46:31.640Z,95156.69
2023-03-11T06:56:35.539Z,95192.72
2023-03-11T07:06:38.007Z,95187.81
2023-03-11T07:16:41.901Z,95192.25
2023-03-11T07:26:44.722Z,95219.19
2023-03-11T07:36:48.764Z,95215.19
2023-03-11T07:46:51.371Z,95226.91
2023-03-11T07:56:55.205Z,95228.16
2023-03-11T08:06:58.008Z,95247.34
2023-03-11T08:17:01.825Z,95252.16
2023-03-11T08:27:04.404Z,95252.53
2023-03-11T08:37:08.246Z,95263.16
2023-03-11T08:47:10.847Z,95260.19
2023-03-11T08:57:14.709Z,95270.63
2023-03-11T09:07:17.801Z,95271.75
2023-03-11T09:17:21.750Z,95271.00
2023-03-11T09:27:24.395Z,95294.41
2023-03-11T09:37:30.153Z,95290.50
2023-03-11T09:47:38.015Z,95295.19
2023-03-11T09:57:46.258Z,95298.84
2023-03-11T10:07:53.777Z,95294.97
2023-03-11T10:18:11.753Z,95301.97
2023-03-11T10:28:15.546Z,95311.47
2023-03-11T10:38:20.901Z,95288.91
2023-03-11T10:48:23.455Z,95293.00
2023-03-11T10:58:28.423Z,95292.66
2023-03-11T11:08:31.095Z,95304.75
2023-03-11T11:18:35.587Z,95310.00
2023-03-11T11:28:38.245Z,95303.09
2023-03-11T11:38:42.229Z,95284.50
2023-03-11T11:48:48.319Z,95288.81
2023-03-11T11:58:52.905Z,95276.50
2023-03-11T12:09:01.620Z,95275.44
2023-03-11T12:19:11.348Z,95264.97
2023-03-11T12:29:21.468Z,95263.88
2023-03-11T12:39:28.834Z,95244.78
2023-03-11T12:49:32.023Z,95244.00
2023-03-11T12:59:56.794Z,95242.31
2023-03-11T13:10:04.319Z,95236.56
2023-03-11T13:20:29.811Z,95226.78
2023-03-11T13:30:36.532Z,95245.03
2023-03-11T13:40:40.686Z,95245.56
2023-03-11T13:50:48.024Z,95252.00
2023-03-11T14:00:51.742Z,95259.50
2023-03-11T14:10:56.298Z,95260.94
2023-03-11T14:20:59.132Z,95232.41
2023-03-11T14:31:03.761Z,95214.28
2023-03-11T14:41:07.508Z,95232.31
2023-03-11T14:51:13.225Z,95234.06
2023-03-11T15:01:18.690Z,95224.91
2023-03-11T15:11:25.298Z,95235.06
2023-03-11T15:21:28.233Z,95235.56
2023-03-11T15:31:33.632Z,95235.06
2023-03-11T15:41:36.117Z,95250.50
2023-03-11T15:51:40.947Z,95268.81
2023-03-11T16:01:43.458Z,95273.91
2023-03-11T16:11:47.253Z,95283.09
2023-03-11T16:21:50.570Z,95284.53
2023-03-11T16:31:55.339Z,95277.84
2023-03-11T16:41:57.888Z,95296.94
2023-03-11T16:52:01.780Z,95301.81
2023-03-11T17:02:04.362Z,95318.41
2023-03-11T17:12:08.968Z,95325.66
2023-03-11T17:22:11.453Z,95330.34
2023-03-11T17:32:17.578Z,95340.91
2023-03-11T17:42:20.169Z,95374.28
2023-03-11T17:52:23.959Z,95394.44
2023-03-11T18:02:26.398Z,95409.66
2023-03-11T18:12:30.235Z,95425.75
2023-03-11T18:22:35.202Z,95442.78
2023-03-11T18:32:39.243Z,95453.44
2023-03-11T18:42:41.681Z,95475.13
2023-03-11T18:52:45.526Z,95476.22
2023-03-11T19:02:50.811Z,95482.16
2023-03-11T19:12:54.694Z,95489.44
2023-03-11T19:22:57.203Z,95505.00
2023-03-11T19:33:01.196Z,95496.13
2023-03-11T19:43:04.796Z,95510.47
2023-03-11T19:53:09.814Z,95508.84
2023-03-11T20:03:12.908Z,95519.91
2023-03-11T20:13:17.857Z,95534.16
2023-03-11T20:23:20.786Z,95542.09
2023-03-11T20:33:24.636Z,95560.59
2023-03-11T20:43:27.341Z,95553.13
2023-03-11T20:53:31.650Z,95554.97
2023-03-11T21:03:34.312Z,95563.31
2023-03-11T21:13:38.290Z,95563.94
2023-03-11T21:23:41.274Z,95571.06
2023-03-11T21:33:45.636Z,95570.84
2023-03-11T21:43:49.960Z,95572.50
2023-03-11T21:53:53.980Z,95582.22
2023-03-11T22:03:56.712Z,95570.44
2023-03-11T22:14:01.501Z,95569.41
2023-03-11T22:24:05.294Z,95569.41
2023-03-11T22:34:09.148Z,95583.41
2023-03-11T22:44:11.689Z,95582.34
2023-03-11T22:54:15.635Z,95576.66
2023-03-11T23:04:19.361Z,95582.13
2023-03-11T23:14:30.672Z,95584.75
2023-03-11T23:24:36.380Z,95594.47
2023-03-11T23:34:40.177Z,95593.03
2023-03-11T23:44:42.698Z,95590.00
2023-03-11T23:54:46.469Z,95594.88
